sensor_id;sensor_type;location;lat;lon;timestamp;P1;durP1;ratioP1;P2;durP2;ratioP2
46719;SDS011;32452;51.382;-0.002;2023-06-14T00:02:02;8.63;;;3.20;;
46719;SDS011;32452;51.382;-0.002;2023-06-14T00:04:48;7.55;;;3.00;;
46719;SDS011;32452;51.382;-0.002;2023-06-14T00:07:36;9.38;;;3.00;;
46719;SDS011;32452;51.382;-0.002;2023-06-14T00:10:27;11.60;;;3.15;;
46719;SDS011;32452;51.382;-0.002;2023-06-14T00:13:15;9.77;;;3.10;;
46719;SDS011;32452;51.382;-0.002;2023-06-14T00:16:01;9.48;;;2.90;;
46719;SDS011;32452;51.382;-0.002;2023-06-14T00:18:46;6.78;;;2.90;;
46719;SDS011;32452;51.382;-0.002;2023-06-14T00:21:32;6.28;;;3.08;;
46719;SDS011;32452;51.382;-0.002;2023-06-14T00:24:18;10.38;;;3.10;;
46719;SDS011;32452;51.382;-0.002;2023-06-14T00:27:04;8.18;;;3.53;;
46719;SDS011;32452;51.382;-0.002;2023-06-14T00:29:50;11.38;;;3.45;;
46719;SDS011;32452;51.382;-0.002;2023-06-14T00:32:36;7.88;;;2.95;;
46719;SDS011;32452;51.382;-0.002;2023-06-14T00:35:21;7.50;;;3.22;;
46719;SDS011;32452;51.382;-0.002;2023-06-14T00:38:08;9.57;;;3.63;;
46719;SDS011;32452;51.382;-0.002;2023-06-14T00:40:53;8.30;;;2.72;;
46719;SDS011;32452;51.382;-0.002;2023-06-14T00:43:39;7.13;;;2.80;;
46719;SDS011;32452;51.382;-0.002;2023-06-14T00:46:25;5.20;;;2.35;;
46719;SDS011;32452;51.382;-0.002;2023-06-14T00:49:10;6.35;;;3.13;;
46719;SDS011;32452;51.382;-0.002;2023-06-14T00:51:59;5.20;;;2.50;;
46719;SDS011;32452;51.382;-0.002;2023-06-14T00:54:45;8.20;;;2.33;;
46719;SDS011;32452;51.382;-0.002;2023-06-14T00:57:30;8.60;;;2.97;;
46719;SDS011;32452;51.382;-0.002;2023-06-14T01:00:16;5.85;;;2.33;;
46719;SDS011;32452;51.382;-0.002;2023-06-14T01:03:02;9.55;;;2.50;;
46719;SDS011;32452;51.382;-0.002;2023-06-14T01:05:49;8.48;;;2.67;;
46719;SDS011;32452;51.382;-0.002;2023-06-14T01:08:48;8.30;;;2.63;;
46719;SDS011;32452;51.382;-0.002;2023-06-14T01:11:45;6.38;;;2.42;;
46719;SDS011;32452;51.382;-0.002;2023-06-14T01:14:43;9.48;;;2.55;;
46719;SDS011;32452;51.382;-0.002;2023-06-14T01:17:32;9.10;;;2.90;;
46719;SDS011;32452;51.382;-0.002;2023-06-14T01:20:19;8.85;;;2.80;;
46719;SDS011;32452;51.382;-0.002;2023-06-14T01:23:06;6.32;;;2.78;;
46719;SDS011;32452;51.382;-0.002;2023-06-14T01:25:51;8.45;;;2.50;;
46719;SDS011;32452;51.382;-0.002;2023-06-14T01:28:40;7.97;;;2.65;;
46719;SDS011;32452;51.382;-0.002;2023-06-14T01:31:26;5.78;;;2.47;;
46719;SDS011;32452;51.382;-0.002;2023-06-14T01:34:12;6.95;;;2.45;;
46719;SDS011;32452;51.382;-0.002;2023-06-14T01:36:57;5.13;;;2.97;;
46719;SDS011;32452;51.382;-0.002;2023-06-14T01:39:45;8.55;;;3.25;;
46719;SDS011;32452;51.382;-0.002;2023-06-14T01:42:36;12.25;;;2.97;;
46719;SDS011;32452;51.382;-0.002;2023-06-14T01:45:23;9.88;;;3.15;;
46719;SDS011;32452;51.382;-0.002;2023-06-14T01:48:09;10.65;;;2.85;;
46719;SDS011;32452;51.382;-0.002;2023-06-14T01:50:54;13.93;;;3.50;;
46719;SDS011;32452;51.382;-0.002;2023-06-14T01:53:40;5.70;;;2.58;;
46719;SDS011;32452;51.382;-0.002;2023-06-14T01:56:25;16.05;;;3.22;;
46719;SDS011;32452;51.382;-0.002;2023-06-14T01:59:11;15.27;;;3.15;;
46719;SDS011;32452;51.382;-0.002;2023-06-14T02:01:57;16.48;;;3.50;;
46719;SDS011;32452;51.382;-0.002;2023-06-14T02:04:42;10.32;;;3.45;;
46719;SDS011;32452;51.382;-0.002;2023-06-14T02:07:28;12.80;;;2.95;;
46719;SDS011;32452;51.382;-0.002;2023-06-14T02:10:13;11.65;;;3.22;;
46719;SDS011;32452;51.382;-0.002;2023-06-14T02:13:00;12.30;;;3.22;;
46719;SDS011;32452;51.382;-0.002;2023-06-14T02:15:46;12.77;;;4.28;;
46719;SDS011;32452;51.382;-0.002;2023-06-14T02:18:33;7.85;;;2.85;;
46719;SDS011;32452;51.382;-0.002;2023-06-14T02:21:19;8.27;;;3.13;;
46719;SDS011;32452;51.382;-0.002;2023-06-14T02:24:04;11.10;;;3.40;;
46719;SDS011;32452;51.382;-0.002;2023-06-14T02:26:50;9.15;;;3.17;;
46719;SDS011;32452;51.382;-0.002;2023-06-14T02:29:36;10.07;;;3.00;;
46719;SDS011;32452;51.382;-0.002;2023-06-14T02:32:22;9.75;;;2.92;;
46719;SDS011;32452;51.382;-0.002;2023-06-14T02:35:08;15.88;;;4.10;;
46719;SDS011;32452;51.382;-0.002;2023-06-14T02:37:54;12.73;;;3.80;;
46719;SDS011;32452;51.382;-0.002;2023-06-14T02:40:39;8.43;;;3.50;;
46719;SDS011;32452;51.382;-0.002;2023-06-14T02:43:28;8.30;;;3.33;;
46719;SDS011;32452;51.382;-0.002;2023-06-14T02:46:14;16.88;;;4.65;;
46719;SDS011;32452;51.382;-0.002;2023-06-14T02:49:00;9.00;;;4.20;;
46719;SDS011;32452;51.382;-0.002;2023-06-14T02:51:45;8.48;;;3.10;;
46719;SDS011;32452;51.382;-0.002;2023-06-14T02:54:30;10.20;;;3.70;;
46719;SDS011;32452;51.382;-0.002;2023-06-14T02:57:16;10.02;;;3.00;;
46719;SDS011;32452;51.382;-0.002;2023-06-14T03:00:02;11.38;;;3.55;;
46719;SDS011;32452;51.382;-0.002;2023-06-14T03:02:47;10.27;;;3.33;;
46719;SDS011;32452;51.382;-0.002;2023-06-14T03:05:33;13.93;;;3.33;;
46719;SDS011;32452;51.382;-0.002;2023-06-14T03:08:18;9.70;;;3.60;;
46719;SDS011;32452;51.382;-0.002;2023-06-14T03:11:05;9.57;;;3.88;;
46719;SDS011;32452;51.382;-0.002;2023-06-14T03:13:51;12.15;;;3.63;;
46719;SDS011;32452;51.382;-0.002;2023-06-14T03:16:37;15.43;;;4.95;;
46719;SDS011;32452;51.382;-0.002;2023-06-14T03:19:23;10.77;;;4.10;;
46719;SDS011;32452;51.382;-0.002;2023-06-14T03:22:08;11.32;;;3.58;;
46719;SDS011;32452;51.382;-0.002;2023-06-14T03:24:56;9.52;;;3.60;;
46719;SDS011;32452;51.382;-0.002;2023-06-14T03:27:42;13.02;;;3.38;;
46719;SDS011;32452;51.382;-0.002;2023-06-14T03:30:27;12.73;;;3.53;;
46719;SDS011;32452;51.382;-0.002;2023-06-14T03:33:14;8.10;;;3.17;;
46719;SDS011;32452;51.382;-0.002;2023-06-14T03:36:01;10.25;;;3.70;;
46719;SDS011;32452;51.382;-0.002;2023-06-14T03:38:47;8.88;;;3.47;;
46719;SDS011;32452;51.382;-0.002;2023-06-14T03:41:32;13.48;;;3.47;;
46719;SDS011;32452;51.382;-0.002;2023-06-14T03:44:18;14.18;;;4.40;;
46719;SDS011;32452;51.382;-0.002;2023-06-14T03:47:04;10.60;;;3.85;;
46719;SDS011;32452;51.382;-0.002;2023-06-14T03:49:50;11.85;;;3.70;;
46719;SDS011;32452;51.382;-0.002;2023-06-14T03:52:36;14.43;;;4.20;;
46719;SDS011;32452;51.382;-0.002;2023-06-14T03:55:21;12.50;;;3.75;;
46719;SDS011;32452;51.382;-0.002;2023-06-14T03:58:30;10.73;;;3.85;;
46719;SDS011;32452;51.382;-0.002;2023-06-14T04:01:15;12.93;;;4.20;;
46719;SDS011;32452;51.382;-0.002;2023-06-14T04:04:01;12.70;;;4.10;;
46719;SDS011;32452;51.382;-0.002;2023-06-14T04:06:48;11.00;;;4.00;;
46719;SDS011;32452;51.382;-0.002;2023-06-14T04:09:35;10.63;;;3.78;;
46719;SDS011;32452;51.382;-0.002;2023-06-14T04:12:20;13.88;;;3.92;;
46719;SDS011;32452;51.382;-0.002;2023-06-14T04:15:06;12.35;;;4.25;;
46719;SDS011;32452;51.382;-0.002;2023-06-14T04:18:05;9.10;;;3.80;;
46719;SDS011;32452;51.382;-0.002;2023-06-14T04:20:51;9.88;;;4.10;;
46719;SDS011;32452;51.382;-0.002;2023-06-14T04:23:38;12.45;;;4.05;;
46719;SDS011;32452;51.382;-0.002;2023-06-14T04:26:24;11.05;;;3.67;;
46719;SDS011;32452;51.382;-0.002;2023-06-14T04:29:15;11.82;;;4.20;;
46719;SDS011;32452;51.382;-0.002;2023-06-14T04:32:01;13.25;;;5.35;;
46719;SDS011;32452;51.382;-0.002;2023-06-14T04:34:46;8.35;;;4.07;;
46719;SDS011;32452;51.382;-0.002;2023-06-14T04:37:32;14.75;;;4.30;;
46719;SDS011;32452;51.382;-0.002;2023-06-14T04:40:18;14.85;;;4.95;;
46719;SDS011;32452;51.382;-0.002;2023-06-14T04:43:04;12.30;;;4.07;;
46719;SDS011;32452;51.382;-0.002;2023-06-14T04:45:49;11.75;;;4.60;;
46719;SDS011;32452;51.382;-0.002;2023-06-14T04:48:37;12.27;;;4.40;;
46719;SDS011;32452;51.382;-0.002;2023-06-14T04:51:26;11.25;;;4.78;;
46719;SDS011;32452;51.382;-0.002;2023-06-14T04:54:14;11.80;;;4.47;;
46719;SDS011;32452;51.382;-0.002;2023-06-14T04:56:59;12.73;;;5.63;;
46719;SDS011;32452;51.382;-0.002;2023-06-14T04:59:45;10.80;;;4.50;;
46719;SDS011;32452;51.382;-0.002;2023-06-14T05:02:31;12.43;;;5.35;;
46719;SDS011;32452;51.382;-0.002;2023-06-14T05:05:16;15.00;;;4.53;;
46719;SDS011;32452;51.382;-0.002;2023-06-14T05:08:02;15.77;;;5.07;;
46719;SDS011;32452;51.382;-0.002;2023-06-14T05:10:48;18.13;;;5.25;;
46719;SDS011;32452;51.382;-0.002;2023-06-14T05:13:33;13.93;;;4.47;;
46719;SDS011;32452;51.382;-0.002;2023-06-14T05:16:19;14.95;;;5.53;;
46719;SDS011;32452;51.382;-0.002;2023-06-14T05:19:08;15.52;;;4.70;;
46719;SDS011;32452;51.382;-0.002;2023-06-14T05:21:55;16.08;;;4.80;;
46719;SDS011;32452;51.382;-0.002;2023-06-14T05:24:41;13.07;;;5.03;;
46719;SDS011;32452;51.382;-0.002;2023-06-14T05:27:27;12.85;;;4.60;;
46719;SDS011;32452;51.382;-0.002;2023-06-14T05:30:13;13.95;;;5.30;;
46719;SDS011;32452;51.382;-0.002;2023-06-14T05:32:59;10.82;;;5.30;;
46719;SDS011;32452;51.382;-0.002;2023-06-14T05:35:45;14.10;;;5.03;;
46719;SDS011;32452;51.382;-0.002;2023-06-14T05:38:31;13.00;;;4.70;;
46719;SDS011;32452;51.382;-0.002;2023-06-14T05:41:17;14.32;;;5.10;;
46719;SDS011;32452;51.382;-0.002;2023-06-14T05:44:02;15.63;;;5.78;;
46719;SDS011;32452;51.382;-0.002;2023-06-14T05:46:48;13.15;;;4.93;;
46719;SDS011;32452;51.382;-0.002;2023-06-14T05:49:34;12.50;;;5.00;;
46719;SDS011;32452;51.382;-0.002;2023-06-14T05:52:19;23.27;;;6.25;;
46719;SDS011;32452;51.382;-0.002;2023-06-14T05:55:05;17.02;;;5.90;;
46719;SDS011;32452;51.382;-0.002;2023-06-14T05:57:51;18.70;;;5.30;;
46719;SDS011;32452;51.382;-0.002;2023-06-14T06:00:37;16.38;;;5.45;;
46719;SDS011;32452;51.382;-0.002;2023-06-14T06:03:23;19.55;;;6.90;;
46719;SDS011;32452;51.382;-0.002;2023-06-14T06:06:08;16.02;;;5.15;;
46719;SDS011;32452;51.382;-0.002;2023-06-14T06:08:54;17.90;;;5.78;;
46719;SDS011;32452;51.382;-0.002;2023-06-14T06:11:40;12.35;;;5.50;;
46719;SDS011;32452;51.382;-0.002;2023-06-14T06:14:37;14.27;;;4.65;;
46719;SDS011;32452;51.382;-0.002;2023-06-14T06:17:22;12.23;;;5.60;;
46719;SDS011;32452;51.382;-0.002;2023-06-14T06:20:07;13.18;;;4.82;;
46719;SDS011;32452;51.382;-0.002;2023-06-14T06:22:54;15.40;;;5.13;;
46719;SDS011;32452;51.382;-0.002;2023-06-14T06:25:40;16.52;;;5.18;;
46719;SDS011;32452;51.382;-0.002;2023-06-14T06:28:26;15.10;;;5.80;;
46719;SDS011;32452;51.382;-0.002;2023-06-14T06:31:12;14.27;;;5.32;;
46719;SDS011;32452;51.382;-0.002;2023-06-14T06:33:58;13.63;;;4.97;;
46719;SDS011;32452;51.382;-0.002;2023-06-14T06:36:43;11.93;;;5.50;;
46719;SDS011;32452;51.382;-0.002;2023-06-14T06:39:29;17.23;;;5.10;;
46719;SDS011;32452;51.382;-0.002;2023-06-14T06:42:14;15.00;;;5.65;;
46719;SDS011;32452;51.382;-0.002;2023-06-14T06:45:00;17.17;;;6.00;;
46719;SDS011;32452;51.382;-0.002;2023-06-14T06:47:46;14.30;;;5.13;;
46719;SDS011;32452;51.382;-0.002;2023-06-14T06:50:31;16.40;;;6.43;;
46719;SDS011;32452;51.382;-0.002;2023-06-14T06:53:17;15.40;;;5.13;;
46719;SDS011;32452;51.382;-0.002;2023-06-14T06:56:19;14.13;;;5.35;;
46719;SDS011;32452;51.382;-0.002;2023-06-14T06:59:06;12.75;;;5.07;;
46719;SDS011;32452;51.382;-0.002;2023-06-14T07:01:52;17.58;;;5.72;;
46719;SDS011;32452;51.382;-0.002;2023-06-14T07:04:39;14.77;;;5.68;;
46719;SDS011;32452;51.382;-0.002;2023-06-14T07:07:25;19.17;;;5.55;;
46719;SDS011;32452;51.382;-0.002;2023-06-14T07:10:11;16.38;;;4.93;;
46719;SDS011;32452;51.382;-0.002;2023-06-14T07:12:56;16.38;;;5.55;;
46719;SDS011;32452;51.382;-0.002;2023-06-14T07:15:42;11.57;;;4.72;;
46719;SDS011;32452;51.382;-0.002;2023-06-14T07:18:28;14.80;;;4.78;;
46719;SDS011;32452;51.382;-0.002;2023-06-14T07:21:14;15.50;;;5.78;;
46719;SDS011;32452;51.382;-0.002;2023-06-14T07:23:59;17.67;;;5.90;;
46719;SDS011;32452;51.382;-0.002;2023-06-14T07:26:45;13.02;;;6.20;;
46719;SDS011;32452;51.382;-0.002;2023-06-14T07:29:31;14.55;;;5.70;;
46719;SDS011;32452;51.382;-0.002;2023-06-14T07:32:17;13.43;;;6.10;;
46719;SDS011;32452;51.382;-0.002;2023-06-14T07:35:02;17.73;;;5.72;;
46719;SDS011;32452;51.382;-0.002;2023-06-14T07:37:48;10.73;;;5.25;;
46719;SDS011;32452;51.382;-0.002;2023-06-14T07:40:34;16.02;;;5.57;;
46719;SDS011;32452;51.382;-0.002;2023-06-14T07:43:19;17.25;;;5.30;;
46719;SDS011;32452;51.382;-0.002;2023-06-14T07:46:06;12.88;;;4.60;;
46719;SDS011;32452;51.382;-0.002;2023-06-14T07:48:54;20.63;;;5.25;;
46719;SDS011;32452;51.382;-0.002;2023-06-14T07:51:41;13.85;;;5.53;;
46719;SDS011;32452;51.382;-0.002;2023-06-14T07:54:28;14.60;;;6.20;;
46719;SDS011;32452;51.382;-0.002;2023-06-14T07:57:15;17.42;;;5.63;;
46719;SDS011;32452;51.382;-0.002;2023-06-14T08:00:00;14.65;;;5.90;;
46719;SDS011;32452;51.382;-0.002;2023-06-14T08:02:46;14.02;;;5.45;;
46719;SDS011;32452;51.382;-0.002;2023-06-14T08:05:31;15.05;;;5.97;;
46719;SDS011;32452;51.382;-0.002;2023-06-14T08:08:17;14.27;;;5.25;;
46719;SDS011;32452;51.382;-0.002;2023-06-14T08:11:03;17.55;;;6.20;;
46719;SDS011;32452;51.382;-0.002;2023-06-14T08:13:49;9.88;;;4.72;;
46719;SDS011;32452;51.382;-0.002;2023-06-14T08:16:34;15.70;;;5.60;;
46719;SDS011;32452;51.382;-0.002;2023-06-14T08:19:20;18.38;;;6.60;;
46719;SDS011;32452;51.382;-0.002;2023-06-14T08:22:05;15.70;;;6.53;;
46719;SDS011;32452;51.382;-0.002;2023-06-14T08:24:51;12.35;;;5.70;;
46719;SDS011;32452;51.382;-0.002;2023-06-14T08:27:39;12.35;;;5.32;;
46719;SDS011;32452;51.382;-0.002;2023-06-14T08:30:24;13.32;;;6.03;;
46719;SDS011;32452;51.382;-0.002;2023-06-14T08:33:10;14.30;;;6.35;;
46719;SDS011;32452;51.382;-0.002;2023-06-14T08:36:01;13.38;;;5.60;;
46719;SDS011;32452;51.382;-0.002;2023-06-14T08:38:46;20.13;;;6.95;;
46719;SDS011;32452;51.382;-0.002;2023-06-14T08:41:32;15.10;;;5.90;;
46719;SDS011;32452;51.382;-0.002;2023-06-14T08:44:18;13.90;;;5.93;;
46719;SDS011;32452;51.382;-0.002;2023-06-14T08:47:04;19.38;;;7.15;;
46719;SDS011;32452;51.382;-0.002;2023-06-14T08:49:51;13.15;;;5.28;;
46719;SDS011;32452;51.382;-0.002;2023-06-14T08:52:42;16.77;;;6.50;;
46719;SDS011;32452;51.382;-0.002;2023-06-14T08:55:35;17.27;;;6.07;;
46719;SDS011;32452;51.382;-0.002;2023-06-14T08:58:31;14.25;;;6.13;;
46719;SDS011;32452;51.382;-0.002;2023-06-14T09:01:19;15.18;;;6.05;;
46719;SDS011;32452;51.382;-0.002;2023-06-14T09:04:06;13.85;;;5.78;;
46719;SDS011;32452;51.382;-0.002;2023-06-14T09:06:52;12.88;;;5.32;;
46719;SDS011;32452;51.382;-0.002;2023-06-14T09:09:40;19.75;;;5.63;;
46719;SDS011;32452;51.382;-0.002;2023-06-14T09:12:47;14.57;;;5.68;;
46719;SDS011;32452;51.382;-0.002;2023-06-14T09:15:33;14.90;;;6.15;;
46719;SDS011;32452;51.382;-0.002;2023-06-14T09:18:19;15.38;;;5.93;;
46719;SDS011;32452;51.382;-0.002;2023-06-14T09:21:05;16.20;;;5.85;;
46719;SDS011;32452;51.382;-0.002;2023-06-14T09:23:52;13.73;;;5.57;;
46719;SDS011;32452;51.382;-0.002;2023-06-14T09:26:39;10.90;;;5.40;;
46719;SDS011;32452;51.382;-0.002;2023-06-14T09:29:25;14.18;;;5.53;;
46719;SDS011;32452;51.382;-0.002;2023-06-14T09:32:13;11.13;;;5.72;;
46719;SDS011;32452;51.382;-0.002;2023-06-14T09:35:00;19.27;;;7.07;;
46719;SDS011;32452;51.382;-0.002;2023-06-14T09:37:46;14.50;;;6.82;;
46719;SDS011;32452;51.382;-0.002;2023-06-14T09:40:35;10.35;;;4.82;;
46719;SDS011;32452;51.382;-0.002;2023-06-14T09:43:22;14.75;;;6.43;;
46719;SDS011;32452;51.382;-0.002;2023-06-14T09:46:09;12.80;;;6.03;;
46719;SDS011;32452;51.382;-0.002;2023-06-14T09:48:58;20.00;;;5.97;;
46719;SDS011;32452;51.382;-0.002;2023-06-14T09:51:45;13.50;;;6.25;;
46719;SDS011;32452;51.382;-0.002;2023-06-14T09:54:33;12.82;;;6.30;;
46719;SDS011;32452;51.382;-0.002;2023-06-14T09:57:25;15.63;;;5.70;;
46719;SDS011;32452;51.382;-0.002;2023-06-14T10:00:12;9.60;;;5.70;;
46719;SDS011;32452;51.382;-0.002;2023-06-14T10:03:03;15.30;;;5.43;;
46719;SDS011;32452;51.382;-0.002;2023-06-14T10:05:58;15.90;;;5.20;;
46719;SDS011;32452;51.382;-0.002;2023-06-14T10:08:50;11.98;;;5.38;;
46719;SDS011;32452;51.382;-0.002;2023-06-14T10:11:39;15.75;;;5.95;;
46719;SDS011;32452;51.382;-0.002;2023-06-14T10:14:29;13.07;;;5.43;;
46719;SDS011;32452;51.382;-0.002;2023-06-14T10:17:25;13.20;;;5.55;;
46719;SDS011;32452;51.382;-0.002;2023-06-14T10:23:08;13.00;;;5.68;;
46719;SDS011;32452;51.382;-0.002;2023-06-14T10:25:58;12.77;;;5.13;;
46719;SDS011;32452;51.382;-0.002;2023-06-14T10:28:54;13.98;;;5.72;;
46719;SDS011;32452;51.382;-0.002;2023-06-14T10:31:47;12.63;;;5.40;;
46719;SDS011;32452;51.382;-0.002;2023-06-14T10:34:34;12.63;;;5.60;;
46719;SDS011;32452;51.382;-0.002;2023-06-14T10:37:24;15.38;;;5.90;;
46719;SDS011;32452;51.382;-0.002;2023-06-14T10:40:09;14.40;;;5.25;;
46719;SDS011;32452;51.382;-0.002;2023-06-14T10:43:22;17.92;;;7.18;;
46719;SDS011;32452;51.382;-0.002;2023-06-14T10:46:13;15.00;;;6.80;;
46719;SDS011;32452;51.382;-0.002;2023-06-14T10:49:08;14.95;;;5.45;;
46719;SDS011;32452;51.382;-0.002;2023-06-14T10:51:55;17.30;;;5.78;;
46719;SDS011;32452;51.382;-0.002;2023-06-14T10:55:02;11.63;;;5.40;;
46719;SDS011;32452;51.382;-0.002;2023-06-14T10:57:56;11.68;;;4.93;;
46719;SDS011;32452;51.382;-0.002;2023-06-14T11:00:43;14.40;;;6.65;;
46719;SDS011;32452;51.382;-0.002;2023-06-14T11:03:51;10.90;;;6.35;;
46719;SDS011;32452;51.382;-0.002;2023-06-14T11:06:47;10.55;;;4.63;;
46719;SDS011;32452;51.382;-0.002;2023-06-14T11:12:58;15.13;;;4.75;;
46719;SDS011;32452;51.382;-0.002;2023-06-14T11:15:45;12.90;;;5.75;;
46719;SDS011;32452;51.382;-0.002;2023-06-14T11:18:34;13.05;;;5.53;;
46719;SDS011;32452;51.382;-0.002;2023-06-14T11:21:21;13.15;;;5.78;;
46719;SDS011;32452;51.382;-0.002;2023-06-14T11:24:10;13.68;;;5.30;;
46719;SDS011;32452;51.382;-0.002;2023-06-14T11:26:57;13.38;;;6.20;;
46719;SDS011;32452;51.382;-0.002;2023-06-14T11:29:48;14.73;;;6.10;;
46719;SDS011;32452;51.382;-0.002;2023-06-14T11:32:35;16.13;;;6.13;;
46719;SDS011;32452;51.382;-0.002;2023-06-14T11:35:22;11.23;;;5.82;;
46719;SDS011;32452;51.382;-0.002;2023-06-14T11:38:09;13.50;;;5.32;;
46719;SDS011;32452;51.382;-0.002;2023-06-14T11:40:58;15.45;;;6.03;;
46719;SDS011;32452;51.382;-0.002;2023-06-14T11:43:45;13.73;;;5.57;;
46719;SDS011;32452;51.382;-0.002;2023-06-14T11:46:30;13.80;;;5.30;;
46719;SDS011;32452;51.382;-0.002;2023-06-14T11:49:16;15.27;;;6.15;;
46719;SDS011;32452;51.382;-0.002;2023-06-14T11:52:02;13.70;;;6.15;;
46719;SDS011;32452;51.382;-0.002;2023-06-14T11:54:48;10.50;;;5.68;;
46719;SDS011;32452;51.382;-0.002;2023-06-14T11:57:34;12.43;;;5.68;;
46719;SDS011;32452;51.382;-0.002;2023-06-14T12:00:27;12.38;;;6.00;;
46719;SDS011;32452;51.382;-0.002;2023-06-14T12:03:12;16.20;;;6.05;;
46719;SDS011;32452;51.382;-0.002;2023-06-14T12:06:03;12.88;;;5.85;;
46719;SDS011;32452;51.382;-0.002;2023-06-14T12:08:50;13.43;;;5.43;;
46719;SDS011;32452;51.382;-0.002;2023-06-14T12:11:35;12.05;;;5.10;;
46719;SDS011;32452;51.382;-0.002;2023-06-14T12:14:21;10.75;;;4.88;;
46719;SDS011;32452;51.382;-0.002;2023-06-14T12:17:16;12.40;;;5.53;;
46719;SDS011;32452;51.382;-0.002;2023-06-14T12:20:06;13.68;;;5.40;;
46719;SDS011;32452;51.382;-0.002;2023-06-14T12:22:56;12.27;;;5.55;;
46719;SDS011;32452;51.382;-0.002;2023-06-14T12:25:47;11.50;;;5.63;;
46719;SDS011;32452;51.382;-0.002;2023-06-14T12:28:34;17.58;;;6.38;;
46719;SDS011;32452;51.382;-0.002;2023-06-14T12:31:20;13.20;;;5.35;;
46719;SDS011;32452;51.382;-0.002;2023-06-14T12:34:07;12.68;;;5.95;;
46719;SDS011;32452;51.382;-0.002;2023-06-14T12:36:53;10.52;;;5.18;;
46719;SDS011;32452;51.382;-0.002;2023-06-14T12:39:39;12.70;;;5.70;;
46719;SDS011;32452;51.382;-0.002;2023-06-14T12:42:26;11.90;;;5.35;;
46719;SDS011;32452;51.382;-0.002;2023-06-14T12:45:12;11.75;;;5.40;;
46719;SDS011;32452;51.382;-0.002;2023-06-14T12:47:59;11.30;;;5.65;;
46719;SDS011;32452;51.382;-0.002;2023-06-14T12:50:45;17.25;;;5.25;;
46719;SDS011;32452;51.382;-0.002;2023-06-14T12:53:37;11.70;;;5.22;;
46719;SDS011;32452;51.382;-0.002;2023-06-14T12:56:23;15.07;;;5.70;;
46719;SDS011;32452;51.382;-0.002;2023-06-14T12:59:08;12.15;;;5.50;;
46719;SDS011;32452;51.382;-0.002;2023-06-14T13:01:55;12.30;;;5.20;;
46719;SDS011;32452;51.382;-0.002;2023-06-14T13:04:41;9.35;;;5.22;;
46719;SDS011;32452;51.382;-0.002;2023-06-14T13:07:26;11.68;;;5.38;;
46719;SDS011;32452;51.382;-0.002;2023-06-14T13:10:12;10.15;;;4.93;;
46719;SDS011;32452;51.382;-0.002;2023-06-14T13:12:57;13.40;;;5.75;;
46719;SDS011;32452;51.382;-0.002;2023-06-14T13:15:45;12.02;;;5.63;;
46719;SDS011;32452;51.382;-0.002;2023-06-14T13:18:31;10.27;;;5.00;;
46719;SDS011;32452;51.382;-0.002;2023-06-14T13:21:16;8.70;;;5.00;;
46719;SDS011;32452;51.382;-0.002;2023-06-14T13:24:02;15.50;;;5.13;;
46719;SDS011;32452;51.382;-0.002;2023-06-14T13:26:48;14.35;;;5.38;;
46719;SDS011;32452;51.382;-0.002;2023-06-14T13:29:34;13.55;;;5.57;;
46719;SDS011;32452;51.382;-0.002;2023-06-14T13:32:21;11.82;;;5.43;;
46719;SDS011;32452;51.382;-0.002;2023-06-14T13:35:08;11.77;;;5.00;;
46719;SDS011;32452;51.382;-0.002;2023-06-14T13:37:53;11.95;;;5.35;;
46719;SDS011;32452;51.382;-0.002;2023-06-14T13:40:39;9.48;;;4.68;;
46719;SDS011;32452;51.382;-0.002;2023-06-14T13:43:24;10.63;;;5.40;;
46719;SDS011;32452;51.382;-0.002;2023-06-14T13:46:09;11.18;;;4.88;;
46719;SDS011;32452;51.382;-0.002;2023-06-14T13:48:55;12.30;;;5.38;;
46719;SDS011;32452;51.382;-0.002;2023-06-14T13:51:41;13.38;;;5.50;;
46719;SDS011;32452;51.382;-0.002;2023-06-14T13:54:26;11.55;;;5.20;;
46719;SDS011;32452;51.382;-0.002;2023-06-14T13:57:12;8.18;;;5.50;;
46719;SDS011;32452;51.382;-0.002;2023-06-14T13:59:58;8.25;;;5.03;;
46719;SDS011;32452;51.382;-0.002;2023-06-14T14:02:47;11.15;;;4.93;;
46719;SDS011;32452;51.382;-0.002;2023-06-14T14:05:35;9.65;;;5.35;;
46719;SDS011;32452;51.382;-0.002;2023-06-14T14:08:21;10.75;;;5.22;;
46719;SDS011;32452;51.382;-0.002;2023-06-14T14:11:06;8.85;;;5.25;;
46719;SDS011;32452;51.382;-0.002;2023-06-14T14:13:52;9.88;;;5.05;;
46719;SDS011;32452;51.382;-0.002;2023-06-14T14:16:38;10.65;;;4.70;;
46719;SDS011;32452;51.382;-0.002;2023-06-14T14:19:24;10.23;;;5.18;;
46719;SDS011;32452;51.382;-0.002;2023-06-14T14:22:09;8.50;;;5.00;;
46719;SDS011;32452;51.382;-0.002;2023-06-14T14:24:55;10.73;;;5.57;;
46719;SDS011;32452;51.382;-0.002;2023-06-14T14:27:41;8.15;;;5.20;;
46719;SDS011;32452;51.382;-0.002;2023-06-14T14:30:27;14.15;;;5.45;;
46719;SDS011;32452;51.382;-0.002;2023-06-14T14:33:13;10.10;;;5.25;;
46719;SDS011;32452;51.382;-0.002;2023-06-14T14:36:01;7.55;;;4.90;;
46719;SDS011;32452;51.382;-0.002;2023-06-14T14:38:49;9.00;;;4.60;;
46719;SDS011;32452;51.382;-0.002;2023-06-14T14:41:37;9.60;;;5.60;;
46719;SDS011;32452;51.382;-0.002;2023-06-14T14:44:26;13.55;;;5.18;;
46719;SDS011;32452;51.382;-0.002;2023-06-14T14:47:12;8.63;;;4.85;;
46719;SDS011;32452;51.382;-0.002;2023-06-14T14:49:58;11.82;;;5.47;;
46719;SDS011;32452;51.382;-0.002;2023-06-14T14:52:43;10.90;;;5.18;;
46719;SDS011;32452;51.382;-0.002;2023-06-14T14:55:29;9.57;;;4.68;;
46719;SDS011;32452;51.382;-0.002;2023-06-14T14:58:15;11.50;;;5.13;;
46719;SDS011;32452;51.382;-0.002;2023-06-14T15:01:03;12.10;;;5.07;;
46719;SDS011;32452;51.382;-0.002;2023-06-14T15:03:50;9.00;;;4.93;;
46719;SDS011;32452;51.382;-0.002;2023-06-14T15:06:43;12.07;;;5.65;;
46719;SDS011;32452;51.382;-0.002;2023-06-14T15:09:29;8.57;;;4.93;;
46719;SDS011;32452;51.382;-0.002;2023-06-14T15:12:15;9.35;;;4.68;;
46719;SDS011;32452;51.382;-0.002;2023-06-14T15:15:00;10.45;;;4.78;;
46719;SDS011;32452;51.382;-0.002;2023-06-14T15:17:47;11.50;;;4.82;;
46719;SDS011;32452;51.382;-0.002;2023-06-14T15:20:33;9.43;;;4.25;;
46719;SDS011;32452;51.382;-0.002;2023-06-14T15:23:19;8.77;;;4.57;;
46719;SDS011;32452;51.382;-0.002;2023-06-14T15:26:04;9.77;;;5.03;;
46719;SDS011;32452;51.382;-0.002;2023-06-14T15:28:50;9.23;;;4.57;;
46719;SDS011;32452;51.382;-0.002;2023-06-14T15:31:36;16.35;;;5.18;;
46719;SDS011;32452;51.382;-0.002;2023-06-14T15:34:21;9.15;;;4.80;;
46719;SDS011;32452;51.382;-0.002;2023-06-14T15:37:07;9.23;;;4.28;;
46719;SDS011;32452;51.382;-0.002;2023-06-14T15:39:53;8.50;;;4.63;;
46719;SDS011;32452;51.382;-0.002;2023-06-14T15:42:38;9.55;;;4.25;;
46719;SDS011;32452;51.382;-0.002;2023-06-14T15:45:24;9.98;;;4.55;;
46719;SDS011;32452;51.382;-0.002;2023-06-14T15:48:09;10.55;;;4.68;;
46719;SDS011;32452;51.382;-0.002;2023-06-14T15:50:55;14.35;;;6.15;;
46719;SDS011;32452;51.382;-0.002;2023-06-14T15:53:40;7.90;;;4.32;;
46719;SDS011;32452;51.382;-0.002;2023-06-14T15:56:26;15.73;;;4.90;;
46719;SDS011;32452;51.382;-0.002;2023-06-14T15:59:12;14.52;;;4.80;;
46719;SDS011;32452;51.382;-0.002;2023-06-14T16:01:57;12.23;;;5.00;;
46719;SDS011;32452;51.382;-0.002;2023-06-14T16:04:43;8.30;;;4.53;;
46719;SDS011;32452;51.382;-0.002;2023-06-14T16:07:29;8.18;;;4.72;;
46719;SDS011;32452;51.382;-0.002;2023-06-14T16:10:14;8.48;;;4.55;;
46719;SDS011;32452;51.382;-0.002;2023-06-14T16:13:00;10.55;;;5.00;;
46719;SDS011;32452;51.382;-0.002;2023-06-14T16:15:46;10.15;;;5.20;;
46719;SDS011;32452;51.382;-0.002;2023-06-14T16:18:32;9.73;;;5.00;;
46719;SDS011;32452;51.382;-0.002;2023-06-14T16:21:17;9.98;;;4.93;;
46719;SDS011;32452;51.382;-0.002;2023-06-14T16:24:03;7.93;;;4.75;;
46719;SDS011;32452;51.382;-0.002;2023-06-14T16:26:49;9.30;;;4.65;;
46719;SDS011;32452;51.382;-0.002;2023-06-14T16:29:39;10.10;;;5.18;;